sensor_id;sensor_type;location;lat;lon;timestamp;pressure;altitude;pressure_sealevel;temperature;humidity
64019;BME280;66942;52.138;5.216;2023-03-26T00:02:34;100715.0;;;13.39;62.6
64019;BME280;66942;52.138;5.216;2023-03-26T00:04:11;100714.0;;;13.38;62.63
64019;BME280;66942;52.138;5.216;2023-03-26T00:05:48;100715.0;;;13.26;62.86
64019;BME280;66942;52.138;5.216;2023-03-26T00:09:01;100720.0;;;13.13;63.16
64019;BME280;66942;52.138;5.216;2023-03-26T00:10:40;100723.0;;;13.1;63.25
64019;BME280;66942;52.138;5.216;2023-03-26T00:12:17;100718.0;;;13.19;63.2
64019;BME280;66942;52.138;5.216;2023-03-26T00:13:54;100717.0;;;13.32;62.77
64019;BME280;66942;52.138;5.216;2023-03-26T00:17:10;100718.0;;;13.01;63.5
64019;BME280;66942;52.138;5.216;2023-03-26T00:18:46;100723.0;;;12.92;63.54
64019;BME280;66942;52.138;5.216;2023-03-26T00:20:22;100726.0;;;12.82;63.9
64019;BME280;66942;52.138;5.216;2023-03-26T00:23:35;100717.0;;;13.28;62.65
64019;BME280;66942;52.138;5.216;2023-03-26T00:25:12;100719.0;;;12.95;63.59
64019;BME280;66942;52.138;5.216;2023-03-26T00:26:49;100714.0;;;13.0;63.4
64019;BME280;66942;52.138;5.216;2023-03-26T00:28:25;100714.0;;;13.0;63.53
64019;BME280;66942;52.138;5.216;2023-03-26T00:31:39;100711.0;;;13.11;63.2
64019;BME280;66942;52.138;5.216;2023-03-26T00:33:16;100702.0;;;12.94;63.56
64019;BME280;66942;52.138;5.216;2023-03-26T00:34:53;100700.0;;;13.01;63.34
64019;BME280;66942;52.138;5.216;2023-03-26T00:38:07;100696.0;;;13.27;62.4
64019;BME280;66942;52.138;5.216;2023-03-26T00:39:43;100694.0;;;13.13;62.61
64019;BME280;66942;52.138;5.216;2023-03-26T00:41:21;100691.0;;;13.02;63.1
64019;BME280;66942;52.138;5.216;2023-03-26T00:44:34;100682.0;;;13.34;62.16
64019;BME280;66942;52.138;5.216;2023-03-26T00:46:11;100682.0;;;12.97;63.12
64019;BME280;66942;52.138;5.216;2023-03-26T00:47:47;100680.0;;;12.72;64.03
64019;BME280;66942;52.138;5.216;2023-03-26T00:49:24;100682.0;;;12.82;63.77
64019;BME280;66942;52.138;5.216;2023-03-26T00:52:36;100677.0;;;13.01;62.99
64019;BME280;66942;52.138;5.216;2023-03-26T00:54:12;100674.0;;;13.51;61.41
64019;BME280;66942;52.138;5.216;2023-03-26T00:55:48;100674.0;;;13.11;62.6
64019;BME280;66942;52.138;5.216;2023-03-26T00:59:01;100675.0;;;12.75;63.46
64019;BME280;66942;52.138;5.216;2023-03-26T01:00:43;100673.0;;;12.72;63.47
64019;BME280;66942;52.138;5.216;2023-03-26T01:02:21;100672.0;;;12.83;62.85
64019;BME280;66942;52.138;5.216;2023-03-26T01:04:20;100667.0;;;12.93;62.63
64019;BME280;66942;52.138;5.216;2023-03-26T01:07:36;100657.0;;;13.24;61.67
64019;BME280;66942;52.138;5.216;2023-03-26T01:09:14;100663.0;;;12.95;62.5
64019;BME280;66942;52.138;5.216;2023-03-26T01:10:55;100659.0;;;13.03;62.25
64019;BME280;66942;52.138;5.216;2023-03-26T01:12:33;100655.0;;;12.95;62.79
64019;BME280;66942;52.138;5.216;2023-03-26T01:15:49;100655.0;;;12.75;63.26
64019;BME280;66942;52.138;5.216;2023-03-26T01:17:27;100655.0;;;12.61;63.77
64019;BME280;66942;52.138;5.216;2023-03-26T01:19:06;100647.0;;;12.7;63.59
64019;BME280;66942;52.138;5.216;2023-03-26T01:20:48;100648.0;;;12.61;63.87
64019;BME280;66942;52.138;5.216;2023-03-26T01:24:04;100638.0;;;12.7;63.72
64019;BME280;66942;52.138;5.216;2023-03-26T01:25:45;100637.0;;;12.53;63.95
64019;BME280;66942;52.138;5.216;2023-03-26T01:27:30;100633.0;;;12.74;63.53
64019;BME280;66942;52.138;5.216;2023-03-26T01:29:18;100630.0;;;12.7;63.57
64019;BME280;66942;52.138;5.216;2023-03-26T01:32:50;100628.0;;;12.61;63.62
64019;BME280;66942;52.138;5.216;2023-03-26T01:34:40;100624.0;;;12.51;64.06
64019;BME280;66942;52.138;5.216;2023-03-26T01:36:24;100621.0;;;12.52;63.98
64019;BME280;66942;52.138;5.216;2023-03-26T01:38:20;100624.0;;;12.51;63.68
64019;BME280;66942;52.138;5.216;2023-03-26T01:40:02;100621.0;;;12.52;63.79
64019;BME280;66942;52.138;5.216;2023-03-26T01:41:44;100610.0;;;12.48;63.97
64019;BME280;66942;52.138;5.216;2023-03-26T01:45:10;100618.0;;;12.36;64.44
64019;BME280;66942;52.138;5.216;2023-03-26T01:46:51;100609.0;;;12.43;64.24
64019;BME280;66942;52.138;5.216;2023-03-26T01:48:29;100611.0;;;12.46;64.14
64019;BME280;66942;52.138;5.216;2023-03-26T01:50:09;100605.0;;;12.74;63.2
64019;BME280;66942;52.138;5.216;2023-03-26T01:53:23;100607.0;;;12.8;62.9
64019;BME280;66942;52.138;5.216;2023-03-26T01:55:00;100603.0;;;12.67;63.28
64019;BME280;66942;52.138;5.216;2023-03-26T01:56:45;100601.0;;;12.32;64.44
64019;BME280;66942;52.138;5.216;2023-03-26T01:58:31;100600.0;;;12.29;64.47
64019;BME280;66942;52.138;5.216;2023-03-26T02:02:06;100597.0;;;12.25;64.48
64019;BME280;66942;52.138;5.216;2023-03-26T02:03:48;100598.0;;;12.42;64.1
64019;BME280;66942;52.138;5.216;2023-03-26T02:05:31;100590.0;;;12.8;62.87
64019;BME280;66942;52.138;5.216;2023-03-26T02:07:13;100589.0;;;12.53;63.66
64019;BME280;66942;52.138;5.216;2023-03-26T02:08:57;100589.0;;;12.4;64.13
64019;BME280;66942;52.138;5.216;2023-03-26T02:12:18;100582.0;;;12.72;63.34
64019;BME280;66942;52.138;5.216;2023-03-26T02:13:56;100580.0;;;12.57;63.58
64019;BME280;66942;52.138;5.216;2023-03-26T02:15:34;100576.0;;;12.39;64.39
64019;BME280;66942;52.138;5.216;2023-03-26T02:17:10;100575.0;;;12.34;64.62
64019;BME280;66942;52.138;5.216;2023-03-26T02:20:24;100575.0;;;12.44;64.56
64019;BME280;66942;52.138;5.216;2023-03-26T02:22:01;100564.0;;;12.97;63.01
64019;BME280;66942;52.138;5.216;2023-03-26T02:23:39;100558.0;;;12.93;63.15
64019;BME280;66942;52.138;5.216;2023-03-26T02:26:56;100558.0;;;12.74;63.75
64019;BME280;66942;52.138;5.216;2023-03-26T02:28:33;100557.0;;;12.51;64.53
64019;BME280;66942;52.138;5.216;2023-03-26T02:30:12;100551.0;;;12.68;64.41
64019;BME280;66942;52.138;5.216;2023-03-26T02:31:50;100548.0;;;12.58;64.53
64019;BME280;66942;52.138;5.216;2023-03-26T02:35:04;100548.0;;;12.48;65.0
64019;BME280;66942;52.138;5.216;2023-03-26T02:36:40;100544.0;;;12.74;64.16
64019;BME280;66942;52.138;5.216;2023-03-26T02:38:17;100541.0;;;12.95;63.65
64019;BME280;66942;52.138;5.216;2023-03-26T02:41:30;100541.0;;;12.97;63.58
64019;BME280;66942;52.138;5.216;2023-03-26T02:43:06;100535.0;;;13.23;63.1
64019;BME280;66942;52.138;5.216;2023-03-26T02:44:42;100540.0;;;13.37;62.61
64019;BME280;66942;52.138;5.216;2023-03-26T02:47:54;100537.0;;;13.14;63.59
64019;BME280;66942;52.138;5.216;2023-03-26T02:49:30;100535.0;;;13.05;64.09
64019;BME280;66942;52.138;5.216;2023-03-26T02:51:06;100535.0;;;13.0;64.56
64019;BME280;66942;52.138;5.216;2023-03-26T02:52:44;100536.0;;;13.22;64.24
64019;BME280;66942;52.138;5.216;2023-03-26T02:55:58;100535.0;;;13.32;64.19
64019;BME280;66942;52.138;5.216;2023-03-26T02:57:35;100533.0;;;13.47;63.77
64019;BME280;66942;52.138;5.216;2023-03-26T02:59:11;100526.0;;;13.76;63.03
64019;BME280;66942;52.138;5.216;2023-03-26T03:02:23;100532.0;;;13.59;63.6
64019;BME280;66942;52.138;5.216;2023-03-26T03:04:01;100524.0;;;13.84;63.06
64019;BME280;66942;52.138;5.216;2023-03-26T03:05:37;100532.0;;;14.11;62.26
64019;BME280;66942;52.138;5.216;2023-03-26T03:08:50;100530.0;;;13.91;62.74
64019;BME280;66942;52.138;5.216;2023-03-26T03:10:27;100522.0;;;13.93;62.95
64019;BME280;66942;52.138;5.216;2023-03-26T03:12:04;100520.0;;;14.0;62.8
64019;BME280;66942;52.138;5.216;2023-03-26T03:13:42;100518.0;;;14.15;62.5
64019;BME280;66942;52.138;5.216;2023-03-26T03:16:56;100518.0;;;13.93;63.05
64019;BME280;66942;52.138;5.216;2023-03-26T03:18:33;100515.0;;;13.87;63.21
64019;BME280;66942;52.138;5.216;2023-03-26T03:20:10;100515.0;;;14.14;62.52
64019;BME280;66942;52.138;5.216;2023-03-26T03:23:23;100516.0;;;13.94;62.95
64019;BME280;66942;52.138;5.216;2023-03-26T03:24:59;100508.0;;;13.9;63.04
64019;BME280;66942;52.138;5.216;2023-03-26T03:26:36;100505.0;;;13.88;63.15
64019;BME280;66942;52.138;5.216;2023-03-26T03:29:49;100505.0;;;14.0;62.71
64019;BME280;66942;52.138;5.216;2023-03-26T03:31:26;100499.0;;;13.92;62.95
64019;BME280;66942;52.138;5.216;2023-03-26T03:33:02;100502.0;;;14.27;62.08
64019;BME280;66942;52.138;5.216;2023-03-26T03:34:39;100500.0;;;13.91;63.04
64019;BME280;66942;52.138;5.216;2023-03-26T03:37:54;100498.0;;;14.03;62.63
64019;BME280;66942;52.138;5.216;2023-03-26T03:39:30;100496.0;;;14.1;62.54
64019;BME280;66942;52.138;5.216;2023-03-26T03:41:07;100491.0;;;14.06;62.41
64019;BME280;66942;52.138;5.216;2023-03-26T03:44:21;100490.0;;;14.26;61.85
64019;BME280;66942;52.138;5.216;2023-03-26T03:45:57;100491.0;;;14.15;61.87
64019;BME280;66942;52.138;5.216;2023-03-26T03:47:34;100492.0;;;14.11;61.91
64019;BME280;66942;52.138;5.216;2023-03-26T03:49:10;100488.0;;;14.08;61.78
64019;BME280;66942;52.138;5.216;2023-03-26T03:52:22;100490.0;;;13.98;62.3
64019;BME280;66942;52.138;5.216;2023-03-26T03:53:59;100488.0;;;14.11;61.76
64019;BME280;66942;52.138;5.216;2023-03-26T03:55:36;100490.0;;;14.01;62.06
64019;BME280;66942;52.138;5.216;2023-03-26T03:58:49;100489.0;;;14.03;61.92
64019;BME280;66942;52.138;5.216;2023-03-26T04:00:25;100486.0;;;13.98;61.98
64019;BME280;66942;52.138;5.216;2023-03-26T04:02:02;100486.0;;;14.18;61.64
64019;BME280;66942;52.138;5.216;2023-03-26T04:05:15;100478.0;;;14.2;61.29
64019;BME280;66942;52.138;5.216;2023-03-26T04:06:51;100475.0;;;14.25;61.43
64019;BME280;66942;52.138;5.216;2023-03-26T04:08:27;100469.0;;;14.21;61.46
64019;BME280;66942;52.138;5.216;2023-03-26T04:11:44;100471.0;;;14.09;61.71
64019;BME280;66942;52.138;5.216;2023-03-26T04:13:20;100467.0;;;14.08;61.89
64019;BME280;66942;52.138;5.216;2023-03-26T04:14:57;100464.0;;;14.0;62.15
64019;BME280;66942;52.138;5.216;2023-03-26T04:16:34;100461.0;;;14.0;62.11
64019;BME280;66942;52.138;5.216;2023-03-26T04:19:46;100458.0;;;13.87;62.34
64019;BME280;66942;52.138;5.216;2023-03-26T04:21:23;100457.0;;;13.61;63.27
64019;BME280;66942;52.138;5.216;2023-03-26T04:22:59;100456.0;;;13.99;62.05
64019;BME280;66942;52.138;5.216;2023-03-26T04:26:14;100452.0;;;14.13;61.76
64019;BME280;66942;52.138;5.216;2023-03-26T04:27:51;100452.0;;;14.1;61.74
64019;BME280;66942;52.138;5.216;2023-03-26T04:29:37;100448.0;;;14.07;61.89
64019;BME280;66942;52.138;5.216;2023-03-26T04:31:17;100445.0;;;14.35;61.11
64019;BME280;66942;52.138;5.216;2023-03-26T04:34:32;100438.0;;;14.38;61.03
64019;BME280;66942;52.138;5.216;2023-03-26T04:36:10;100432.0;;;14.53;60.52
64019;BME280;66942;52.138;5.216;2023-03-26T04:37:46;100433.0;;;14.16;61.46
64019;BME280;66942;52.138;5.216;2023-03-26T04:39:23;100426.0;;;14.54;60.45
64019;BME280;66942;52.138;5.216;2023-03-26T04:42:37;100421.0;;;14.41;60.88
64019;BME280;66942;52.138;5.216;2023-03-26T04:44:14;100413.0;;;14.09;61.95
64019;BME280;66942;52.138;5.216;2023-03-26T04:45:51;100416.0;;;13.92;62.57
64019;BME280;66942;52.138;5.216;2023-03-26T04:49:03;100415.0;;;14.04;62.04
64019;BME280;66942;52.138;5.216;2023-03-26T04:50:40;100410.0;;;13.95;62.38
64019;BME280;66942;52.138;5.216;2023-03-26T04:52:17;100408.0;;;13.65;63.31
64019;BME280;66942;52.138;5.216;2023-03-26T04:55:37;100405.0;;;13.63;63.33
64019;BME280;66942;52.138;5.216;2023-03-26T04:57:21;100405.0;;;13.67;63.03
64019;BME280;66942;52.138;5.216;2023-03-26T04:59:01;100401.0;;;13.71;62.85
64019;BME280;66942;52.138;5.216;2023-03-26T05:00:37;100393.0;;;13.82;62.56
64019;BME280;66942;52.138;5.216;2023-03-26T05:03:49;100392.0;;;13.69;63.11
64019;BME280;66942;52.138;5.216;2023-03-26T05:05:27;100390.0;;;13.66;62.9
64019;BME280;66942;52.138;5.216;2023-03-26T05:07:04;100385.0;;;13.76;62.76
64019;BME280;66942;52.138;5.216;2023-03-26T05:08:41;100385.0;;;13.78;62.77
64019;BME280;66942;52.138;5.216;2023-03-26T05:11:53;100387.0;;;13.78;62.65
64019;BME280;66942;52.138;5.216;2023-03-26T05:13:29;100385.0;;;13.58;63.26
64019;BME280;66942;52.138;5.216;2023-03-26T05:15:06;100382.0;;;13.56;63.45
64019;BME280;66942;52.138;5.216;2023-03-26T05:18:23;100382.0;;;13.7;63.08
64019;BME280;66942;52.138;5.216;2023-03-26T05:19:59;100382.0;;;13.57;63.46
64019;BME280;66942;52.138;5.216;2023-03-26T05:21:36;100378.0;;;13.64;63.32
64019;BME280;66942;52.138;5.216;2023-03-26T05:24:48;100375.0;;;13.88;62.59
64019;BME280;66942;52.138;5.216;2023-03-26T05:26:24;100372.0;;;13.64;63.37
64019;BME280;66942;52.138;5.216;2023-03-26T05:28:01;100371.0;;;13.62;63.56
64019;BME280;66942;52.138;5.216;2023-03-26T05:29:37;100366.0;;;13.83;62.98
64019;BME280;66942;52.138;5.216;2023-03-26T05:32:53;100364.0;;;13.81;62.91
64019;BME280;66942;52.138;5.216;2023-03-26T05:34:29;100355.0;;;13.73;63.2
64019;BME280;66942;52.138;5.216;2023-03-26T05:36:08;100359.0;;;13.76;63.15
64019;BME280;66942;52.138;5.216;2023-03-26T05:39:23;100356.0;;;13.51;63.89
64019;BME280;66942;52.138;5.216;2023-03-26T05:41:01;100359.0;;;13.49;64.02
64019;BME280;66942;52.138;5.216;2023-03-26T05:42:38;100355.0;;;13.45;64.16
64019;BME280;66942;52.138;5.216;2023-03-26T05:44:16;100346.0;;;13.53;63.89
64019;BME280;66942;52.138;5.216;2023-03-26T05:47:28;100347.0;;;13.68;63.23
64019;BME280;66942;52.138;5.216;2023-03-26T05:49:05;100346.0;;;13.63;63.7
64019;BME280;66942;52.138;5.216;2023-03-26T05:50:41;100343.0;;;13.97;62.55
64019;BME280;66942;52.138;5.216;2023-03-26T05:53:53;100339.0;;;13.79;62.9
64019;BME280;66942;52.138;5.216;2023-03-26T05:55:30;100339.0;;;13.56;63.55
64019;BME280;66942;52.138;5.216;2023-03-26T05:57:06;100336.0;;;13.44;63.95
64019;BME280;66942;52.138;5.216;2023-03-26T06:00:18;100333.0;;;13.39;64.05
64019;BME280;66942;52.138;5.216;2023-03-26T06:01:54;100335.0;;;13.6;63.55
64019;BME280;66942;52.138;5.216;2023-03-26T06:03:31;100330.0;;;13.63;63.62
64019;BME280;66942;52.138;5.216;2023-03-26T06:06:45;100330.0;;;13.82;63.02
64019;BME280;66942;52.138;5.216;2023-03-26T06:08:21;100326.0;;;13.98;62.37
64019;BME280;66942;52.138;5.216;2023-03-26T06:09:57;100322.0;;;13.99;62.39
64019;BME280;66942;52.138;5.216;2023-03-26T06:11:33;100317.0;;;14.14;61.92
64019;BME280;66942;52.138;5.216;2023-03-26T06:14:45;100317.0;;;13.94;62.41
64019;BME280;66942;52.138;5.216;2023-03-26T06:16:21;100318.0;;;13.92;62.56
64019;BME280;66942;52.138;5.216;2023-03-26T06:17:58;100311.0;;;13.73;63.06
64019;BME280;66942;52.138;5.216;2023-03-26T06:21:12;100310.0;;;13.61;63.71
64019;BME280;66942;52.138;5.216;2023-03-26T06:22:48;100307.0;;;13.72;63.29
64019;BME280;66942;52.138;5.216;2023-03-26T06:24:24;100307.0;;;13.77;63.39
64019;BME280;66942;52.138;5.216;2023-03-26T06:27:37;100305.0;;;13.76;63.42
64019;BME280;66942;52.138;5.216;2023-03-26T06:29:14;100308.0;;;13.72;63.61
64019;BME280;66942;52.138;5.216;2023-03-26T06:30:50;100299.0;;;14.02;62.68
64019;BME280;66942;52.138;5.216;2023-03-26T06:32:27;100299.0;;;14.07;62.12
64019;BME280;66942;52.138;5.216;2023-03-26T06:35:39;100305.0;;;14.21;61.87
64019;BME280;66942;52.138;5.216;2023-03-26T06:37:15;100305.0;;;14.09;61.62
64019;BME280;66942;52.138;5.216;2023-03-26T06:38:52;100306.0;;;14.37;61.05
64019;BME280;66942;52.138;5.216;2023-03-26T06:42:06;100305.0;;;14.24;61.2
64019;BME280;66942;52.138;5.216;2023-03-26T06:43:43;100301.0;;;13.86;62.43
64019;BME280;66942;52.138;5.216;2023-03-26T06:45:19;100303.0;;;13.92;62.28
64019;BME280;66942;52.138;5.216;2023-03-26T06:48:31;100303.0;;;14.0;62.48
64019;BME280;66942;52.138;5.216;2023-03-26T06:50:08;100301.0;;;14.18;61.78
64019;BME280;66942;52.138;5.216;2023-03-26T06:51:45;100307.0;;;14.2;61.78
64019;BME280;66942;52.138;5.216;2023-03-26T06:53:22;100313.0;;;14.59;60.6
64019;BME280;66942;52.138;5.216;2023-03-26T06:56:35;100310.0;;;14.45;61.04
64019;BME280;66942;52.138;5.216;2023-03-26T06:58:11;100307.0;;;14.57;60.43
64019;BME280;66942;52.138;5.216;2023-03-26T06:59:48;100306.0;;;14.4;61.08
64019;BME280;66942;52.138;5.216;2023-03-26T07:03:02;100303.0;;;14.38;61.12
64019;BME280;66942;52.138;5.216;2023-03-26T07:04:38;100306.0;;;14.3;61.4
64019;BME280;66942;52.138;5.216;2023-03-26T07:06:14;100300.0;;;14.11;62.02
64019;BME280;66942;52.138;5.216;2023-03-26T07:09:26;100302.0;;;14.25;61.62
64019;BME280;66942;52.138;5.216;2023-03-26T07:11:03;100302.0;;;14.26;61.55
64019;BME280;66942;52.138;5.216;2023-03-26T07:12:40;100296.0;;;14.46;61.04
64019;BME280;66942;52.138;5.216;2023-03-26T07:14:17;100300.0;;;14.36;61.35
64019;BME280;66942;52.138;5.216;2023-03-26T07:17:29;100296.0;;;14.41;61.31
64019;BME280;66942;52.138;5.216;2023-03-26T07:19:05;100298.0;;;14.51;61.16
64019;BME280;66942;52.138;5.216;2023-03-26T07:20:43;100300.0;;;14.37;61.6
64019;BME280;66942;52.138;5.216;2023-03-26T07:23:58;100299.0;;;14.61;60.99
64019;BME280;66942;52.138;5.216;2023-03-26T07:25:36;100296.0;;;14.14;62.11
64019;BME280;66942;52.138;5.216;2023-03-26T07:27:22;100297.0;;;14.24;62.09
64019;BME280;66942;52.138;5.216;2023-03-26T07:29:16;100298.0;;;14.27;62.14
64019;BME280;66942;52.138;5.216;2023-03-26T07:33:02;100297.0;;;14.48;61.5
64019;BME280;66942;52.138;5.216;2023-03-26T07:34:49;100295.0;;;14.09;62.06
64019;BME280;66942;52.138;5.216;2023-03-26T07:36:33;100293.0;;;14.21;61.83
64019;BME280;66942;52.138;5.216;2023-03-26T07:38:26;100291.0;;;14.22;61.54
64019;BME280;66942;52.138;5.216;2023-03-26T07:40:15;100292.0;;;14.26;61.82
64019;BME280;66942;52.138;5.216;2023-03-26T07:41:58;100294.0;;;14.44;61.5
64019;BME280;66942;52.138;5.216;2023-03-26T07:43:55;100287.0;;;14.33;61.5
64019;BME280;66942;52.138;5.216;2023-03-26T07:46:03;100292.0;;;14.42;61.8
64019;BME280;66942;52.138;5.216;2023-03-26T07:47:46;100289.0;;;14.49;61.28
64019;BME280;66942;52.138;5.216;2023-03-26T07:51:00;100292.0;;;14.31;61.55
64019;BME280;66942;52.138;5.216;2023-03-26T07:52:37;100291.0;;;14.22;62.01
64019;BME280;66942;52.138;5.216;2023-03-26T07:54:14;100287.0;;;14.19;62.12
64019;BME280;66942;52.138;5.216;2023-03-26T07:57:39;100283.0;;;14.14;63.07
64019;BME280;66942;52.138;5.216;2023-03-26T07:59:27;100287.0;;;14.14;63.4
64019;BME280;66942;52.138;5.216;2023-03-26T08:01:10;100285.0;;;14.51;61.77
64019;BME280;66942;52.138;5.216;2023-03-26T08:03:56;100283.0;;;14.48;61.62
64019;BME280;66942;52.138;5.216;2023-03-26T08:05:49;100282.0;;;14.6;60.96
64019;BME280;66942;52.138;5.216;2023-03-26T08:07:35;100280.0;;;14.59;60.99
64019;BME280;66942;52.138;5.216;2023-03-26T08:09:23;100281.0;;;14.27;62.03
64019;BME280;66942;52.138;5.216;2023-03-26T08:11:14;100283.0;;;14.34;61.9
64019;BME280;66942;52.138;5.216;2023-03-26T08:13:09;100284.0;;;14.41;61.87
64019;BME280;66942;52.138;5.216;2023-03-26T08:16:43;100282.0;;;14.22;61.95
64019;BME280;66942;52.138;5.216;2023-03-26T08:18:30;100282.0;;;14.3;61.59
64019;BME280;66942;52.138;5.216;2023-03-26T08:20:23;100283.0;;;14.25;62.06
64019;BME280;66942;52.138;5.216;2023-03-26T08:22:10;100280.0;;;13.89;62.24
64019;BME280;66942;52.138;5.216;2023-03-26T08:23:57;100282.0;;;14.23;61.65
64019;BME280;66942;52.138;5.216;2023-03-26T08:25:44;100280.0;;;14.2;61.84
64019;BME280;66942;52.138;5.216;2023-03-26T08:27:31;100280.0;;;14.08;62.22
64019;BME280;66942;52.138;5.216;2023-03-26T08:31:01;100282.0;;;13.83;62.58
64019;BME280;66942;52.138;5.216;2023-03-26T08:32:38;100280.0;;;13.8;62.45
64019;BME280;66942;52.138;5.216;2023-03-26T08:34:15;100287.0;;;13.63;63.26
64019;BME280;66942;52.138;5.216;2023-03-26T08:35:51;100281.0;;;13.5;62.99
64019;BME280;66942;52.138;5.216;2023-03-26T08:39:04;100284.0;;;13.68;62.3
64019;BME280;66942;52.138;5.216;2023-03-26T08:41:13;100287.0;;;13.43;62.54
64019;BME280;66942;52.138;5.216;2023-03-26T08:45:13;100282.0;;;13.33;63.03
64019;BME280;66942;52.138;5.216;2023-03-26T08:48:28;100282.0;;;13.38;62.95
64019;BME280;66942;52.138;5.216;2023-03-26T08:51:00;100286.0;;;13.57;62.53
64019;BME280;66942;52.138;5.216;2023-03-26T08:54:38;100290.0;;;13.51;62.39
64019;BME280;66942;52.138;5.216;2023-03-26T08:56:59;100284.0;;;13.49;62.85
64019;BME280;66942;52.138;5.216;2023-03-26T09:03:12;100285.0;;;13.81;61.56
64019;BME280;66942;52.138;5.216;2023-03-26T09:06:49;100284.0;;;13.72;61.81
64019;BME280;66942;52.138;5.216;2023-03-26T09:10:29;100286.0;;;13.72;62.45
64019;BME280;66942;52.138;5.216;2023-03-26T09:18:32;100290.0;;;13.69;61.82
64019;BME280;66942;52.138;5.216;2023-03-26T09:23:05;100289.0;;;13.66;62.29
64019;BME280;66942;52.138;5.216;2023-03-26T09:26:23;100286.0;;;13.38;62.55
64019;BME280;66942;52.138;5.216;2023-03-26T09:30:45;100289.0;;;13.33;62.88
64019;BME280;66942;52.138;5.216;2023-03-26T09:33:36;100289.0;;;13.64;61.95
64019;BME280;66942;52.138;5.216;2023-03-26T09:35:47;100291.0;;;13.55;62.58
64019;BME280;66942;52.138;5.216;2023-03-26T09:37:34;100286.0;;;13.66;62.46
64019;BME280;66942;52.138;5.216;2023-03-26T09:39:28;100292.0;;;13.42;62.38
64019;BME280;66942;52.138;5.216;2023-03-26T09:41:15;100293.0;;;12.93;63.97
64019;BME280;66942;52.138;5.216;2023-03-26T09:42:55;100289.0;;;13.19;63.09
64019;BME280;66942;52.138;5.216;2023-03-26T09:47:51;100293.0;;;13.34;62.89
64019;BME280;66942;52.138;5.216;2023-03-26T09:51:21;100298.0;;;13.48;62.5
64019;BME280;66942;52.138;5.216;2023-03-26T09:54:04;100301.0;;;13.59;62.35
64019;BME280;66942;52.138;5.216;2023-03-26T09:56:12;100303.0;;;13.63;62.32
64019;BME280;66942;52.138;5.216;2023-03-26T09:58:14;100302.0;;;13.85;61.7
64019;BME280;66942;52.138;5.216;2023-03-26T10:00:17;100302.0;;;13.54;62.04
64019;BME280;66942;52.138;5.216;2023-03-26T10:02:11;100308.0;;;13.46;62.2
64019;BME280;66942;52.138;5.216;2023-03-26T10:03:59;100310.0;;;13.77;61.83
64019;BME280;66942;52.138;5.216;2023-03-26T10:05:55;100312.0;;;13.08;63.05
64019;BME280;66942;52.138;5.216;2023-03-26T10:09:45;100311.0;;;13.41;62.49
64019;BME280;66942;52.138;5.216;2023-03-26T10:11:51;100314.0;;;12.97;63.56
64019;BME280;66942;52.138;5.216;2023-03-26T10:13:38;100312.0;;;13.39;62.67
64019;BME280;66942;52.138;5.216;2023-03-26T10:15:31;100314.0;;;13.32;62.46
64019;BME280;66942;52.138;5.216;2023-03-26T10:17:25;100318.0;;;13.22;63.11
64019;BME280;66942;52.138;5.216;2023-03-26T10:19:20;100317.0;;;13.09;63.26
64019;BME280;66942;52.138;5.216;2023-03-26T10:21:08;100318.0;;;13.25;62.66
64019;BME280;66942;52.138;5.216;2023-03-26T10:22:58;100316.0;;;13.29;62.54
64019;BME280;66942;52.138;5.216;2023-03-26T10:25:21;100322.0;;;13.36;62.6
64019;BME280;66942;52.138;5.216;2023-03-26T10:27:10;100323.0;;;13.1;62.76
64019;BME280;66942;52.138;5.216;2023-03-26T10:29:11;100327.0;;;13.41;62.27
64019;BME280;66942;52.138;5.216;2023-03-26T10:32:05;100325.0;;;13.09;63.24
64019;BME280;66942;52.138;5.216;2023-03-26T10:33:53;100333.0;;;13.22;62.63
64019;BME280;66942;52.138;5.216;2023-03-26T10:35:46;100336.0;;;12.96;62.68
64019;BME280;66942;52.138;5.216;2023-03-26T10:37:37;100341.0;;;13.13;62.59
64019;BME280;66942;52.138;5.216;2023-03-26T10:39:36;100342.0;;;13.17;62.29
64019;BME280;66942;52.138;5.216;2023-03-26T10:44:16;100339.0;;;13.39;61.91
64019;BME280;66942;52.138;5.216;2023-03-26T10:47:00;100344.0;;;13.18;62.1
64019;BME280;66942;52.138;5.216;2023-03-26T10:49:40;100342.0;;;13.07;62.2
64019;BME280;66942;52.138;5.216;2023-03-26T10:51:37;100343.0;;;13.36;61.5
64019;BME280;66942;52.138;5.216;2023-03-26T10:53:26;100347.0;;;12.92;62.48
64019;BME280;66942;52.138;5.216;2023-03-26T10:55:10;100344.0;;;13.07;61.97
64019;BME280;66942;52.138;5.216;2023-03-26T10:56:51;100346.0;;;13.2;61.66
64019;BME280;66942;52.138;5.216;2023-03-26T10:58:30;100345.0;;;13.49;61.72
64019;BME280;66942;52.138;5.216;2023-03-26T11:02:04;100356.0;;;13.29;61.73
64019;BME280;66942;52.138;5.216;2023-03-26T11:03:49;100350.0;;;13.5;61.08
64019;BME280;66942;52.138;5.216;2023-03-26T11:05:43;100355.0;;;13.1;61.72
64019;BME280;66942;52.138;5.216;2023-03-26T11:07:26;100352.0;;;13.16;61.84
64019;BME280;66942;52.138;5.216;2023-03-26T11:09:20;100362.0;;;13.32;60.91
64019;BME280;66942;52.138;5.216;2023-03-26T11:11:04;100355.0;;;13.48;61.48
64019;BME280;66942;52.138;5.216;2023-03-26T11:12:52;100365.0;;;13.17;62.2
64019;BME280;66942;52.138;5.216;2023-03-26T11:16:22;100363.0;;;13.31;61.95
64019;BME280;66942;52.138;5.216;2023-03-26T11:18:12;100363.0;;;13.68;61.24
64019;BME280;66942;52.138;5.216;2023-03-26T11:19:53;100368.0;;;13.32;61.0
64019;BME280;66942;52.138;5.216;2023-03-26T11:21:38;100371.0;;;13.54;60.08
64019;BME280;66942;52.138;5.216;2023-03-26T11:23:33;100372.0;;;13.03;61.03
64019;BME280;66942;52.138;5.216;2023-03-26T11:28:02;100372.0;;;13.7;59.71
64019;BME280;66942;52.138;5.216;2023-03-26T11:29:49;100378.0;;;13.52;60.22
64019;BME280;66942;52.138;5.216;2023-03-26T11:31:39;100380.0;;;13.79;59.83
64019;BME280;66942;52.138;5.216;2023-03-26T11:35:06;100383.0;;;13.46;60.16
64019;BME280;66942;52.138;5.216;2023-03-26T11:36:52;100387.0;;;13.58;60.07
64019;BME280;66942;52.138;5.216;2023-03-26T11:38:33;100389.0;;;13.32;60.69
64019;BME280;66942;52.138;5.216;2023-03-26T11:40:14;100390.0;;;13.59;60.61